Time;durP1;ratioP1;P1;durP2;ratioP2;P2;SDS_P1;SDS_P2;PMS_P1;PMS_P2;Temp;Humidity;BMP_temperature;BMP_pressure;BME280_temperature;BME280_humidity;BME280_pressure;Samples;Min_cycle;Max_cycle;Signal;HPM_P1;HPM_P2
2021/11/30 00:01:09;;;;;;;12.30;9.13;;;3.00;99.90;;;3.77;100.00;99449.72;5016501;28;20278;-62
2021/11/30 00:03:40;;;;;;;13.17;9.83;;;3.00;99.90;;;3.69;100.00;99448.00;5016322;28;20244;-63
2021/11/30 00:06:10;;;;;;;15.17;10.00;;;3.00;99.90;;;3.61;100.00;99449.97;5016373;28;20600;-63
2021/11/30 00:08:39;;;;;;;14.63;9.80;;;2.90;99.90;;;3.59;100.00;99444.84;5015823;28;20233;-63
2021/11/30 00:11:10;;;;;;;15.07;9.63;;;2.90;99.90;;;3.70;100.00;99440.84;5016204;28;20290;-61
2021/11/30 00:13:41;;;;;;;14.13;9.57;;;2.90;99.90;;;3.57;100.00;99440.72;5016139;28;20219;-63
2021/11/30 00:16:11;;;;;;;15.10;9.67;;;2.90;99.90;;;3.71;100.00;99442.47;5016233;28;20219;-62
2021/11/30 00:18:40;;;;;;;12.80;9.87;;;2.90;99.90;;;3.74;100.00;99442.09;5016035;28;20282;-64
2021/11/30 00:21:12;;;;;;;12.43;9.33;;;2.90;99.90;;;3.60;100.00;99440.34;5016050;28;20328;-64
2021/11/30 00:23:40;;;;;;;13.13;9.70;;;2.90;99.90;;;3.54;100.00;99436.63;5015870;28;20255;-63
2021/11/30 00:26:08;;;;;;;15.00;10.10;;;2.90;99.90;;;3.78;100.00;99430.03;5016149;28;20199;-63
2021/11/30 00:28:37;;;;;;;14.57;10.33;;;3.00;99.90;;;3.69;100.00;99444.50;5015557;28;20342;-63
2021/11/30 00:31:05;;;;;;;14.83;10.93;;;2.90;99.90;;;3.57;100.00;99438.06;5016395;28;20254;-63
2021/11/30 00:33:33;;;;;;;14.57;10.27;;;2.90;99.90;;;3.44;100.00;99436.13;5015993;28;20666;-63
2021/11/30 00:36:03;;;;;;;15.10;10.40;;;2.80;99.90;;;3.38;100.00;99447.53;5015815;28;20230;-63
2021/11/30 00:38:31;;;;;;;15.80;10.47;;;2.80;99.90;;;3.44;100.00;99445.94;5015338;28;20287;-61
2021/11/30 00:41:00;;;;;;;14.33;10.53;;;2.80;99.90;;;3.33;100.00;99459.78;5015861;28;20293;-64
2021/11/30 00:43:33;;;;;;;15.37;10.87;;;2.70;99.90;;;3.29;100.00;99458.50;5015494;28;20259;-63
2021/11/30 00:46:11;;;;;;;15.37;10.60;;;2.70;99.90;;;3.34;100.00;99456.09;5015866;28;20284;-62
2021/11/30 00:48:39;;;;;;;13.87;10.00;;;2.70;99.90;;;3.42;100.00;99450.63;5015523;28;20282;-62
2021/11/30 00:51:17;;;;;;;12.70;9.73;;;2.70;99.90;;;3.34;100.00;99456.91;5015753;28;20278;-63
2021/11/30 00:53:50;;;;;;;12.33;9.27;;;2.70;99.90;;;3.18;100.00;99451.03;5015340;28;20221;-62
2021/11/30 00:56:19;;;;;;;12.13;8.83;;;2.60;99.90;;;3.10;100.00;99454.63;5015255;28;20278;-62
2021/11/30 00:58:49;;;;;;;12.67;9.13;;;2.50;99.90;;;3.13;100.00;99454.25;5014889;28;20298;-63
2021/11/30 01:01:19;;;;;;;13.17;9.67;;;2.50;99.90;;;2.88;100.00;99452.13;5015366;28;20199;-62
2021/11/30 01:03:48;;;;;;;12.50;9.00;;;2.40;99.90;;;2.82;100.00;99450.22;5015090;28;20187;-62
2021/11/30 01:06:17;;;;;;;13.30;9.13;;;2.40;99.90;;;3.04;100.00;99450.06;5014973;28;20260;-62
2021/11/30 01:08:45;;;;;;;14.20;9.80;;;2.30;99.90;;;2.93;100.00;99445.25;5014851;28;20741;-63
2021/11/30 01:11:14;;;;;;;15.50;9.37;;;2.30;99.90;;;2.79;100.00;99435.47;5014887;28;20709;-63
2021/11/30 01:13:42;;;;;;;13.57;9.60;;;2.30;99.90;;;2.72;100.00;99429.28;5015227;28;20297;-64
2021/11/30 01:16:11;;;;;;;12.50;8.50;;;2.20;99.90;;;2.65;100.00;99424.88;5015117;28;20195;-62
2021/11/30 01:18:39;;;;;;;10.37;8.17;;;2.20;99.90;;;2.49;100.00;99424.09;5015033;28;20253;-63
2021/11/30 01:21:08;;;;;;;10.87;7.63;;;2.10;99.90;;;2.49;100.00;99421.44;5014985;28;20286;-63
2021/11/30 01:23:38;;;;;;;9.17;7.20;;;2.10;99.90;;;2.71;100.00;99421.44;5014519;28;20237;-63
2021/11/30 01:26:06;;;;;;;10.67;8.00;;;2.10;99.90;;;2.57;100.00;99419.69;5014871;28;20297;-63
2021/11/30 01:28:35;;;;;;;9.57;7.40;;;2.00;99.90;;;2.56;100.00;99418.00;5014514;28;20683;-61
2021/11/30 01:31:03;;;;;;;7.97;6.67;;;2.00;99.90;;;2.66;100.00;99406.06;5014479;28;20733;-63
2021/11/30 01:33:34;;;;;;;9.60;8.00;;;2.10;99.90;;;2.54;100.00;99404.13;5014484;28;20248;-62
2021/11/30 01:36:04;;;;;;;8.63;7.30;;;2.00;99.90;;;2.49;100.00;99402.81;5014779;28;20746;-62
2021/11/30 01:38:33;;;;;;;8.63;5.90;;;2.00;99.90;;;2.55;100.00;99405.75;5014446;28;20209;-62
2021/11/30 01:41:05;;;;;;;8.80;7.07;;;2.00;99.90;;;2.63;100.00;99397.66;5014545;28;20290;-62
2021/11/30 01:43:40;;;;;;;8.97;6.70;;;2.00;99.90;;;2.61;100.00;99397.84;5014403;28;20187;-63
2021/11/30 01:46:11;;;;;;;8.53;6.60;;;2.00;99.90;;;2.62;100.00;99396.84;5014054;28;20591;-63
2021/11/30 01:51:28;;;;;;;9.90;7.37;;;2.10;99.90;;;2.74;100.00;99382.03;5014284;28;20213;-63
2021/11/30 01:53:58;;;;;;;6.83;5.73;;;2.10;99.90;;;2.59;100.00;99375.13;5014239;28;20227;-63
2021/11/30 01:56:28;;;;;;;8.73;6.53;;;2.00;99.90;;;2.66;100.00;99384.81;5014365;28;20570;-63
2021/11/30 01:58:57;;;;;;;8.90;6.53;;;2.10;99.90;;;2.57;100.00;99385.97;5014106;28;20278;-62
2021/11/30 02:01:26;;;;;;;9.57;6.90;;;2.00;99.90;;;2.81;100.00;99377.59;5014238;28;20235;-63
2021/11/30 02:03:54;;;;;;;9.30;6.80;;;2.10;99.90;;;2.99;100.00;99379.84;5014274;28;20673;-62
2021/11/30 02:06:23;;;;;;;8.70;6.97;;;2.20;99.90;;;2.82;100.00;99378.44;5014199;28;20336;-63
2021/11/30 02:08:51;;;;;;;7.83;6.30;;;2.10;99.90;;;2.65;100.00;99372.53;5013832;28;20294;-63
2021/11/30 02:11:19;;;;;;;9.00;7.03;;;2.10;99.90;;;2.53;100.00;99363.41;5013979;28;20225;-64
2021/11/30 02:13:49;;;;;;;9.93;6.83;;;2.10;99.90;;;2.74;100.00;99362.63;5013620;28;20910;-63
2021/11/30 02:16:20;;;;;;;9.70;6.80;;;2.10;99.90;;;2.80;100.00;99354.69;5013973;28;20621;-62
2021/11/30 02:18:52;;;;;;;8.70;6.53;;;2.10;99.90;;;2.68;100.00;99353.56;5013925;28;20195;-63
2021/11/30 02:21:24;;;;;;;8.40;6.03;;;2.10;99.90;;;2.65;100.00;99347.78;5013853;28;20293;-62
2021/11/30 02:23:59;;;;;;;9.10;6.50;;;2.00;99.90;;;2.74;100.00;99344.81;5013808;28;20207;-63
2021/11/30 02:26:29;;;;;;;9.47;5.97;;;2.10;99.90;;;2.74;100.00;99334.16;5013479;28;20639;-63
2021/11/30 02:28:58;;;;;;;9.43;6.67;;;2.10;99.90;;;2.76;100.00;99339.31;5013201;28;20235;-63
2021/11/30 02:31:31;;;;;;;8.70;6.40;;;2.10;99.90;;;2.92;100.00;99333.72;5013410;28;20236;-63
2021/11/30 02:34:00;;;;;;;9.47;6.80;;;2.10;99.90;;;2.70;100.00;99329.44;5013570;28;20183;-63
2021/11/30 02:36:36;;;;;;;9.70;7.07;;;2.10;99.90;;;2.57;100.00;99329.31;5013568;28;20235;-62
2021/11/30 02:39:09;;;;;;;9.53;7.00;;;2.00;99.90;;;2.53;100.00;99322.72;5013353;28;20259;-62
2021/11/30 02:41:38;;;;;;;7.77;5.63;;;2.00;99.90;;;2.74;100.00;99326.19;5013386;28;20186;-63
2021/11/30 02:44:09;;;;;;;7.33;5.40;;;2.10;99.90;;;2.70;100.00;99311.66;5013453;28;20303;-63
2021/11/30 02:46:40;;;;;;;9.30;6.60;;;2.10;99.90;;;2.91;100.00;99308.97;5013303;28;20269;-63
2021/11/30 02:49:18;;;;;;;7.00;5.30;;;2.10;99.90;;;2.66;100.00;99298.91;5013307;28;20213;-63
2021/11/30 02:51:51;;;;;;;8.63;5.60;;;2.10;99.90;;;2.72;100.00;99293.69;5013287;28;20242;-62
2021/11/30 02:54:24;;;;;;;8.07;5.60;;;2.10;99.90;;;2.67;100.00;99297.91;5012872;28;20630;-63
2021/11/30 02:56:55;;;;;;;6.57;5.20;;;2.10;99.90;;;2.73;100.00;99290.00;5012804;28;20282;-62
2021/11/30 02:59:25;;;;;;;7.37;5.13;;;2.10;99.90;;;2.78;100.00;99271.63;5013307;28;20618;-61
2021/11/30 03:01:56;;;;;;;6.47;4.90;;;2.20;99.90;;;2.92;100.00;99262.75;5012925;28;20189;-63
2021/11/30 03:04:26;;;;;;;6.47;5.07;;;2.20;99.90;;;2.91;100.00;99260.28;5013066;28;20826;-63
2021/11/30 03:06:57;;;;;;;6.10;4.73;;;2.30;99.90;;;2.95;100.00;99265.03;5013100;28;20232;-62
2021/11/30 03:09:26;;;;;;;6.23;4.93;;;2.30;99.90;;;3.15;100.00;99265.16;5012724;28;20204;-62
2021/11/30 03:11:56;;;;;;;5.70;4.70;;;2.40;99.90;;;3.21;100.00;99254.59;5012868;28;20299;-62
2021/11/30 03:14:27;;;;;;;7.13;5.07;;;2.40;99.90;;;3.19;100.00;99245.97;5013097;28;20619;-62
2021/11/30 03:16:57;;;;;;;6.37;4.73;;;2.40;99.90;;;3.22;100.00;99232.28;5012727;28;20281;-63
2021/11/30 03:19:28;;;;;;;5.93;4.70;;;2.50;99.90;;;3.42;100.00;99232.38;5012965;28;20198;-61
2021/11/30 03:22:01;;;;;;;6.33;4.73;;;2.50;99.90;;;3.35;100.00;99232.34;5012715;28;20209;-62
2021/11/30 03:24:30;;;;;;;5.03;4.40;;;2.60;99.90;;;3.33;100.00;99230.91;5012857;28;20263;-62
2021/11/30 03:26:59;;;;;;;6.27;4.57;;;2.60;99.90;;;3.33;100.00;99236.22;5012220;28;20692;-62
2021/11/30 03:29:27;;;;;;;6.23;4.50;;;2.60;99.90;;;3.43;100.00;99234.03;5012603;28;20635;-63
2021/11/30 03:32:03;;;;;;;6.43;4.90;;;2.70;99.90;;;3.66;100.00;99226.56;5012450;28;20222;-63
2021/11/30 03:34:31;;;;;;;5.83;4.53;;;2.70;99.90;;;3.46;100.00;99220.31;5012844;28;20187;-62
2021/11/30 03:37:01;;;;;;;6.57;4.30;;;2.80;99.90;;;3.63;100.00;99222.47;5012764;28;20273;-62
2021/11/30 03:39:29;;;;;;;5.87;4.57;;;2.80;99.90;;;3.74;100.00;99227.19;5012534;28;20286;-62
2021/11/30 03:41:59;;;;;;;5.07;4.13;;;2.90;99.90;;;3.78;100.00;99235.63;5012413;28;20283;-63
2021/11/30 03:44:29;;;;;;;6.47;4.70;;;2.90;99.90;;;3.78;100.00;99224.97;5012661;28;20532;-63
2021/11/30 03:46:59;;;;;;;5.83;4.70;;;3.00;99.90;;;3.87;100.00;99217.63;5012372;28;20642;-62
2021/11/30 03:49:28;;;;;;;6.33;4.87;;;2.90;99.90;;;3.70;100.00;99209.97;5012495;28;20289;-63
2021/11/30 03:51:57;;;;;;;6.23;4.50;;;3.00;99.90;;;3.83;100.00;99211.03;5012681;28;20442;-62
2021/11/30 03:54:28;;;;;;;6.70;5.07;;;3.00;99.90;;;3.72;100.00;99199.94;5012108;28;20761;-62
2021/11/30 03:56:56;;;;;;;7.07;5.73;;;3.00;99.90;;;3.47;100.00;99195.34;5012065;28;20191;-62
2021/11/30 03:59:25;;;;;;;6.47;5.07;;;2.80;99.90;;;3.68;100.00;99187.25;5012569;28;20287;-62
2021/11/30 04:01:54;;;;;;;7.63;5.80;;;2.90;99.90;;;3.54;100.00;99188.19;5012357;28;20286;-62
2021/11/30 04:04:24;;;;;;;7.73;6.00;;;2.80;99.90;;;3.43;100.00;99176.28;5012354;28;20555;-62
2021/11/30 04:06:55;;;;;;;8.40;6.03;;;2.70;99.90;;;3.47;100.00;99168.72;5012450;28;20554;-63
2021/11/30 04:09:26;;;;;;;8.40;6.47;;;2.70;99.90;;;3.28;100.00;99156.97;5011984;28;20724;-63
2021/11/30 04:11:56;;;;;;;9.40;6.83;;;2.70;99.90;;;3.16;100.00;99153.22;5012111;28;20301;-63
2021/11/30 04:14:26;;;;;;;8.30;6.83;;;2.60;99.90;;;3.19;100.00;99142.22;5012316;28;20193;-62
2021/11/30 04:16:55;;;;;;;9.10;6.30;;;2.50;99.90;;;3.31;100.00;99140.63;5012321;28;20268;-62
2021/11/30 04:19:23;;;;;;;9.13;6.93;;;2.60;99.90;;;3.38;100.00;99138.78;5011928;28;20648;-62
2021/11/30 04:21:52;;;;;;;10.33;6.73;;;2.60;99.90;;;3.31;100.00;99139.78;5012169;28;20202;-63
2021/11/30 04:24:21;;;;;;;8.57;6.53;;;2.60;99.90;;;3.33;100.00;99137.75;5012311;28;20235;-62
2021/11/30 04:26:50;;;;;;;8.37;6.53;;;2.60;99.90;;;3.36;100.00;99137.34;5012124;28;20199;-62
2021/11/30 04:29:19;;;;;;;9.30;7.17;;;2.60;99.90;;;3.34;100.00;99131.41;5011938;28;20234;-63
2021/11/30 04:31:47;;;;;;;8.97;6.37;;;2.70;99.90;;;3.43;100.00;99122.25;5011772;28;20693;-64
2021/11/30 04:34:17;;;;;;;8.93;6.60;;;2.70;99.90;;;3.54;100.00;99105.69;5016063;28;20245;-62
2021/11/30 04:36:46;;;;;;;9.07;6.67;;;2.70;99.90;;;3.42;100.00;99105.44;5015846;28;20289;-61
2021/11/30 04:39:15;;;;;;;8.70;6.57;;;2.70;99.90;;;3.47;100.00;99096.84;5015674;28;20289;-62
2021/11/30 04:41:44;;;;;;;9.47;6.37;;;2.70;99.90;;;3.54;100.00;99079.88;5015665;28;20203;-62
2021/11/30 04:44:14;;;;;;;9.40;6.87;;;2.70;99.90;;;3.55;100.00;99075.38;5015595;28;20642;-62
2021/11/30 04:46:50;;;;;;;9.50;6.37;;;2.70;99.90;;;3.69;100.00;99066.38;5015752;28;20209;-61
2021/11/30 04:49:35;;;;;;;8.90;6.77;;;2.80;99.90;;;3.53;100.00;99067.59;5015509;28;20290;-62
2021/11/30 04:52:08;;;;;;;10.47;6.53;;;2.80;99.90;;;3.75;100.00;99060.25;5015665;28;20246;-62
2021/11/30 04:54:37;;;;;;;7.40;6.10;;;2.80;99.90;;;3.79;100.00;99048.16;5015695;28;20267;-63
2021/11/30 04:57:06;;;;;;;10.83;6.73;;;2.90;99.90;;;3.62;100.00;99037.09;5015427;28;20230;-62
2021/11/30 04:59:36;;;;;;;9.43;7.50;;;2.90;99.90;;;3.70;100.00;99030.75;5015061;28;20252;-63
2021/11/30 05:02:05;;;;;;;11.10;7.03;;;3.00;99.90;;;3.91;100.00;99033.22;5015217;28;20283;-62
2021/11/30 05:04:37;;;;;;;9.23;7.03;;;3.00;99.90;;;3.84;100.00;99026.25;5015286;28;20203;-62
2021/11/30 05:07:06;;;;;;;9.10;6.97;;;3.00;99.90;;;3.68;100.00;99022.16;5015211;28;20221;-63
2021/11/30 05:09:34;;;;;;;10.63;7.80;;;3.00;99.90;;;3.72;100.00;99002.09;5015178;28;20203;-62
2021/11/30 05:12:03;;;;;;;7.93;6.03;;;3.00;99.90;;;3.88;100.00;99001.66;5014902;28;20239;-62
2021/11/30 05:14:31;;;;;;;9.70;7.03;;;3.00;99.90;;;4.04;100.00;99006.59;5014754;28;20203;-63
2021/11/30 05:17:01;;;;;;;8.30;6.80;;;3.20;99.90;;;3.92;100.00;98996.75;5014950;28;20203;-62
2021/11/30 05:19:29;;;;;;;9.00;6.80;;;3.10;99.90;;;3.86;100.00;99006.38;5014657;28;20298;-62
2021/11/30 05:21:57;;;;;;;9.87;6.67;;;3.10;99.90;;;3.94;100.00;99000.03;5014583;28;20872;-62
2021/11/30 05:24:26;;;;;;;8.60;6.50;;;3.10;99.90;;;3.95;100.00;98999.00;5014747;28;20202;-63
2021/11/30 05:26:56;;;;;;;7.27;5.90;;;3.20;99.90;;;3.97;100.00;98997.78;5014549;28;20337;-62
2021/11/30 05:29:25;;;;;;;8.80;6.43;;;3.20;99.90;;;3.98;100.00;98999.41;5014866;28;20274;-63
2021/11/30 05:31:53;;;;;;;9.40;6.40;;;3.20;99.90;;;3.84;100.00;98994.31;5014302;28;20679;-61
2021/11/30 05:34:23;;;;;;;9.07;7.23;;;3.10;99.90;;;3.88;100.00;99001.66;5014578;28;20289;-62
2021/11/30 05:36:51;;;;;;;9.47;6.83;;;3.10;99.90;;;3.87;100.00;98992.06;5014613;28;20289;-62
2021/11/30 05:39:19;;;;;;;8.73;6.47;;;3.10;99.90;;;3.84;100.00;98983.66;5014112;28;20213;-62
2021/11/30 05:41:48;;;;;;;9.83;6.80;;;3.10;99.90;;;3.64;100.00;98994.28;5014407;28;20306;-61
2021/11/30 05:44:17;;;;;;;8.63;5.57;;;3.00;99.90;;;3.59;100.00;98973.59;5013473;28;20705;-63
2021/11/30 05:46:46;;;;;;;7.70;6.07;;;3.00;99.90;;;3.64;100.00;98973.81;5014248;28;20203;-63
2021/11/30 05:49:16;;;;;;;8.13;6.53;;;2.90;99.90;;;3.67;100.00;98953.94;5013931;28;20191;-62
2021/11/30 05:51:46;;;;;;;8.40;6.30;;;2.90;99.90;;;3.59;100.00;98954.16;5013953;28;20646;-63
2021/11/30 05:54:14;;;;;;;8.20;6.23;;;2.90;99.90;;;3.48;100.00;98931.63;5014156;28;20540;-63
2021/11/30 05:57:03;;;;;;;8.37;6.90;;;2.80;99.90;;;3.59;100.00;98930.19;5013853;28;20238;-62
2021/11/30 05:59:36;;;;;;;8.30;6.20;;;2.80;99.90;;;3.54;100.00;98922.81;5014013;28;20242;-63
2021/11/30 06:02:06;;;;;;;8.63;6.67;;;2.90;99.90;;;3.54;100.00;98922.00;5014114;28;20187;-62
2021/11/30 06:04:35;;;;;;;8.47;5.97;;;2.80;99.90;;;3.48;100.00;98909.53;5014088;28;20229;-63
2021/11/30 06:07:05;;;;;;;8.10;6.67;;;2.80;99.90;;;3.41;100.00;98914.03;5013777;28;20722;-61
2021/11/30 06:09:34;;;;;;;7.47;5.93;;;2.80;99.90;;;3.46;100.00;98912.41;5013663;28;20298;-62
2021/11/30 06:12:04;;;;;;;8.10;6.60;;;2.80;99.90;;;3.45;100.00;98902.75;5013575;28;20215;-63
2021/11/30 06:14:32;;;;;;;6.80;6.00;;;2.70;99.90;;;3.39;100.00;98903.59;5013257;28;20314;-62
2021/11/30 06:17:01;;;;;;;8.43;5.70;;;2.70;99.90;;;3.36;100.00;98881.88;5013654;28;20201;-62
2021/11/30 06:19:29;;;;;;;9.07;6.30;;;2.60;99.90;;;3.46;100.00;98879.63;5013719;28;20217;-62
2021/11/30 06:21:57;;;;;;;14.50;9.90;;;2.60;99.90;;;3.38;100.00;98877.97;5013658;28;20250;-62
2021/11/30 06:24:27;;;;;;;291.77;199.87;;;2.60;99.90;;;3.48;100.00;98861.63;5013469;28;20598;-61
2021/11/30 06:26:56;;;;;;;10.43;9.00;;;2.70;99.90;;;3.45;100.00;98862.84;5013722;28;20198;-62
2021/11/30 06:29:24;;;;;;;8.23;6.13;;;2.70;99.90;;;3.25;100.00;98856.69;5013563;28;20286;-62
2021/11/30 06:31:52;;;;;;;7.03;5.93;;;2.60;99.90;;;3.25;100.00;98850.56;5013536;28;20225;-61
2021/11/30 06:34:20;;;;;;;6.50;5.10;;;2.60;99.90;;;3.32;100.00;98848.72;5012998;28;20235;-62
2021/11/30 06:36:49;;;;;;;7.77;5.30;;;2.60;99.90;;;3.39;100.00;98834.38;5013396;28;20207;-62
2021/11/30 06:39:17;;;;;;;6.13;4.80;;;2.60;99.90;;;3.35;100.00;98835.81;5013231;28;20238;-61
2021/11/30 06:41:47;;;;;;;5.95;4.78;;;2.60;99.90;;;3.47;100.00;98828.84;5013012;28;20529;-62
2021/11/30 06:44:17;;;;;;;4.47;3.90;;;2.60;99.90;;;3.45;100.00;98824.78;5013520;28;20203;-62
2021/11/30 06:46:45;;;;;;;3.87;3.47;;;2.70;99.90;;;3.41;100.00;98821.69;5013280;28;20205;-61
2021/11/30 06:49:14;;;;;;;3.97;3.47;;;2.70;99.90;;;3.36;100.00;98823.34;5013078;28;20637;-63
2021/11/30 06:51:43;;;;;;;5.47;3.87;;;2.70;99.90;;;3.45;100.00;98814.13;5013232;28;20299;-62
2021/11/30 06:54:12;;;;;;;5.87;3.80;;;2.70;99.90;;;3.54;100.00;98820.84;5012891;28;20245;-61
2021/11/30 06:56:40;;;;;;;4.90;3.80;;;2.70;99.90;;;3.58;100.00;98814.91;5012520;28;20221;-62
2021/11/30 06:59:10;;;;;;;3.97;3.57;;;2.80;99.90;;;3.54;100.00;98820.84;5013067;28;20226;-62
2021/11/30 07:01:38;;;;;;;4.13;3.27;;;2.80;99.90;;;3.45;100.00;98808.81;5013337;28;20200;-62
2021/11/30 07:04:07;;;;;;;3.90;2.50;;;2.80;99.90;;;3.50;100.00;98809.00;5013003;28;20533;-62
2021/11/30 07:06:40;;;;;;;5.07;2.83;;;2.80;99.90;;;3.49;100.00;98799.34;5012825;28;20637;-61
2021/11/30 07:09:17;;;;;;;2.60;2.40;;;2.80;99.90;;;3.42;100.00;98798.53;5012700;28;20219;-61
2021/11/30 07:12:03;;;;;;;5.27;2.80;;;2.80;99.90;;;3.49;100.00;98794.88;5012815;28;20632;-61
2021/11/30 07:14:32;;;;;;;4.43;2.67;;;2.80;99.90;;;3.42;100.00;98790.56;5012910;28;20398;-61
2021/11/30 07:17:01;;;;;;;2.47;2.07;;;2.80;99.90;;;3.48;100.00;98787.09;5011711;28;20213;-61
2021/11/30 07:19:31;;;;;;;4.67;2.40;;;2.80;99.90;;;3.54;100.00;98776.41;5012947;28;20298;-61
2021/11/30 07:22:00;;;;;;;3.50;2.40;;;2.80;99.90;;;3.56;100.00;98765.56;5012487;28;20741;-60
2021/11/30 07:24:29;;;;;;;2.40;2.20;;;2.90;99.90;;;3.62;100.00;98767.38;5013081;28;20298;-60
2021/11/30 07:26:57;;;;;;;3.47;2.33;;;2.90;99.90;;;3.62;100.00;98746.06;5012542;28;20210;-61
2021/11/30 07:29:41;;;;;;;3.23;2.67;;;3.00;99.90;;;3.70;100.00;98745.88;5012750;28;20187;-62
2021/11/30 07:32:10;;;;;;;2.50;2.30;;;3.00;99.90;;;3.69;100.00;98745.03;5012278;28;20207;-62
2021/11/30 07:34:39;;;;;;;3.10;2.60;;;3.00;99.90;;;3.79;100.00;98738.47;5012590;28;20317;-61
2021/11/30 07:37:07;;;;;;;2.43;2.07;;;3.10;99.90;;;3.72;100.00;98735.81;5012290;28;20257;-62
2021/11/30 07:39:36;;;;;;;2.73;1.80;;;3.10;99.90;;;3.73;100.00;98727.63;5012389;28;20242;-63
2021/11/30 07:42:05;;;;;;;3.40;2.17;;;3.10;99.90;;;3.69;100.00;98730.91;5012470;28;20211;-62
2021/11/30 07:44:34;;;;;;;2.27;1.83;;;3.10;99.90;;;3.65;100.00;98717.19;5012320;28;20199;-61
2021/11/30 07:47:04;;;;;;;2.40;2.20;;;3.10;99.90;;;3.67;100.00;98707.16;5012548;28;20238;-62
2021/11/30 07:49:32;;;;;;;2.70;1.80;;;3.10;99.90;;;3.75;100.00;98709.56;5012500;28;20226;-62
2021/11/30 07:52:01;;;;;;;2.83;1.87;;;3.10;99.90;;;3.85;100.00;98693.16;5012380;28;20207;-62
2021/11/30 07:54:30;;;;;;;2.27;2.00;;;3.10;99.90;;;3.84;100.00;98688.84;5012293;28;20219;-62
2021/11/30 07:56:58;;;;;;;2.63;2.33;;;3.10;99.90;;;3.86;100.00;98681.47;5012319;28;20218;-62
2021/11/30 07:59:26;;;;;;;2.20;2.00;;;3.10;99.90;;;3.90;100.00;98692.50;5012214;28;20754;-65
2021/11/30 08:01:54;;;;;;;2.47;1.70;;;3.20;99.90;;;3.87;100.00;98682.28;5012439;28;20201;-62
2021/11/30 08:04:24;;;;;;;5.43;1.60;;;3.20;99.90;;;4.04;100.00;98676.25;5012449;28;20228;-64
2021/11/30 08:06:52;;;;;;;3.00;1.80;;;3.30;99.90;;;4.10;100.00;98669.22;5013899;28;20276;-62
2021/11/30 08:09:21;;;;;;;1.80;1.33;;;3.40;99.90;;;4.16;100.00;98669.19;5015840;28;20304;-63
2021/11/30 08:11:50;;;;;;;2.63;1.97;;;3.40;99.90;;;4.00;100.00;98669.72;5016008;28;20244;-63
2021/11/30 08:14:18;;;;;;;3.87;1.73;;;3.40;99.90;;;3.90;100.00;98669.34;5015988;28;20325;-61
2021/11/30 08:16:47;;;;;;;2.97;2.10;;;3.30;99.90;;;4.01;100.00;98663.34;5013379;28;20210;-61
2021/11/30 08:19:15;;;;;;;2.13;1.60;;;3.30;99.90;;;3.96;100.00;98668.50;5012519;28;20203;-60
2021/11/30 08:21:45;;;;;;;1.57;1.43;;;3.30;99.90;;;3.94;100.00;98659.88;5012992;28;20187;-59
2021/11/30 08:24:13;;;;;;;2.63;2.30;;;3.30;99.90;;;3.98;100.00;98674.44;5012892;28;20195;-60
2021/11/30 08:26:42;;;;;;;1.87;1.70;;;3.30;99.90;;;3.99;100.00;98664.59;5013068;28;20628;-61
2021/11/30 08:29:10;;;;;;;1.40;1.30;;;3.30;99.90;;;3.94;100.00;98664.41;5012462;28;20764;-63
2021/11/30 08:31:39;;;;;;;1.53;1.30;;;3.30;99.90;;;4.09;100.00;98665.75;5011860;28;20230;-62
2021/11/30 08:34:07;;;;;;;1.10;1.00;;;3.40;99.90;;;4.13;100.00;98647.47;5012626;28;20311;-62
2021/11/30 08:36:36;;;;;;;2.60;1.67;;;3.40;99.90;;;4.26;100.00;98652.72;5012906;28;20210;-61
2021/11/30 08:39:06;;;;;;;1.30;1.20;;;3.50;99.90;;;4.23;100.00;98661.97;5012526;28;20290;-61
2021/11/30 08:41:34;;;;;;;1.23;1.13;;;3.50;99.90;;;4.36;100.00;98658.38;5012798;28;20864;-59
2021/11/30 08:44:03;;;;;;;1.90;1.33;;;3.50;99.90;;;4.36;100.00;98653.88;5012373;28;20546;-61
2021/11/30 08:46:45;;;;;;;2.10;1.50;;;3.60;99.90;;;4.44;100.00;98650.13;5012719;28;20196;-64
2021/11/30 08:49:14;;;;;;;1.70;1.40;;;3.70;99.90;;;4.42;100.00;98647.66;5012649;28;20210;-61
2021/11/30 08:51:43;;;;;;;1.53;1.33;;;3.70;99.90;;;4.48;100.00;98640.66;5012423;28;20314;-61
2021/11/30 08:54:12;;;;;;;1.10;1.00;;;3.70;99.90;;;4.47;100.00;98633.69;5012217;28;20685;-62
2021/11/30 08:56:41;;;;;;;1.20;1.10;;;3.80;99.90;;;4.49;100.00;98635.09;5004005;28;20214;-65
2021/11/30 08:59:11;;;;;;;2.27;1.60;;;3.80;99.90;;;4.62;100.00;98636.81;5007961;28;20705;-65
2021/11/30 09:01:40;;;;;;;1.73;1.47;;;3.80;99.90;;;4.66;100.00;98628.19;4994024;28;20241;-62
2021/11/30 09:04:10;;;;;;;2.17;1.67;;;3.90;99.90;;;4.75;100.00;98626.06;4996539;28;20199;-61
2021/11/30 09:06:38;;;;;;;2.43;1.77;;;3.90;99.90;;;4.74;100.00;98619.91;5011990;28;20283;-61
2021/11/30 09:09:10;;;;;;;1.43;1.33;;;3.90;99.90;;;4.68;100.00;98626.13;5012208;28;20298;-62
2021/11/30 09:12:00;;;;;;;1.27;1.17;;;4.00;99.90;;;4.83;100.00;98626.59;5012377;28;20205;-65
2021/11/30 09:14:29;;;;;;;0.60;0.60;;;4.00;99.90;;;4.85;100.00;98613.03;5012939;28;20220;-64
2021/11/30 09:16:58;;;;;;;2.10;0.90;;;4.00;99.90;;;4.83;100.00;98594.59;5012813;28;20234;-67
2021/11/30 09:19:38;;;;;;;0.80;0.80;;;4.10;99.90;;;4.94;100.00;98590.34;5011831;28;20285;-68
2021/11/30 09:22:08;;;;;;;1.30;0.80;;;4.10;99.90;;;4.97;100.00;98573.91;5012170;28;20183;-65
2021/11/30 09:24:37;;;;;;;2.23;0.93;;;4.20;99.90;;;4.82;100.00;98579.59;5008337;28;20196;-65
2021/11/30 09:27:07;;;;;;;0.80;0.80;;;4.20;99.90;;;4.99;100.00;98577.97;5004150;28;20288;-65
2021/11/30 09:29:36;;;;;;;0.90;0.90;;;4.20;99.90;;;4.98;100.00;98575.53;5001439;28;20276;-63
2021/11/30 09:32:05;;;;;;;7.13;4.77;;;4.20;99.90;;;5.01;100.00;98583.06;5000177;28;20263;-63
2021/11/30 09:34:38;;;;;;;2.10;1.90;;;4.20;99.90;;;5.10;100.00;98578.25;5011499;28;20217;-62
2021/11/30 09:37:08;;;;;;;1.30;1.20;;;4.30;99.90;;;5.12;100.00;98576.19;5011177;28;20200;-63
2021/11/30 09:39:37;;;;;;;1.53;1.30;;;4.30;99.90;;;5.14;100.00;98571.44;5011132;28;20735;-61
2021/11/30 09:42:07;;;;;;;0.70;0.70;;;4.30;99.90;;;5.15;100.00;98575.72;5010922;28;20295;-62
2021/11/30 09:44:36;;;;;;;1.03;0.83;;;4.30;99.90;;;5.13;100.00;98546.59;5010495;28;20193;-62
2021/11/30 09:47:05;;;;;;;1.00;1.00;;;4.40;99.90;;;5.13;100.00;98551.94;5003173;28;20262;-62
2021/11/30 09:49:33;;;;;;;0.93;0.90;;;4.40;99.90;;;5.11;100.00;98553.22;4998484;28;20207;-62
2021/11/30 09:52:02;;;;;;;0.80;0.80;;;4.40;99.90;;;5.18;100.00;98564.59;4999485;28;20236;-61
2021/11/30 09:54:30;;;;;;;0.87;0.70;;;4.40;99.90;;;5.07;100.00;98550.19;5003910;28;20777;-61
2021/11/30 09:56:59;;;;;;;3.93;2.80;;;4.30;99.90;;;5.14;100.00;98550.91;4991846;28;20629;-62
2021/11/30 09:59:29;;;;;;;0.90;0.87;;;4.40;99.90;;;5.17;100.00;98520.28;4991400;28;20615;-60
2021/11/30 10:01:58;;;;;;;0.67;0.67;;;4.40;99.90;;;5.19;100.00;98519.03;4991428;28;20292;-65
2021/11/30 10:04:26;;;;;;;0.70;0.70;;;4.50;99.90;;;5.26;100.00;98505.59;4991713;28;20262;-64
2021/11/30 10:06:55;;;;;;;1.00;1.00;;;4.40;99.90;;;5.20;100.00;98509.97;4991162;28;20199;-63
2021/11/30 10:09:25;;;;;;;1.00;0.73;;;4.50;99.90;;;5.36;100.00;98495.19;4991039;28;20301;-62
2021/11/30 10:11:59;;;;;;;0.97;0.80;;;4.50;99.90;;;5.42;100.00;98496.94;4991415;28;20249;-64
2021/11/30 10:14:35;;;;;;;0.90;0.90;;;4.60;99.90;;;5.51;100.00;98495.56;4991400;28;20200;-65
2021/11/30 10:17:19;;;;;;;1.50;0.80;;;4.60;99.90;;;5.47;100.00;98475.69;4991206;28;20278;-64
2021/11/30 10:19:58;;;;;;;0.80;0.80;;;4.70;99.90;;;5.65;100.00;98489.78;4990994;28;20627;-61
2021/11/30 10:22:53;;;;;;;0.80;0.70;;;4.80;99.90;;;5.71;100.00;98493.41;4991217;28;20191;-62
2021/11/30 10:25:26;;;;;;;0.77;0.77;;;4.80;99.90;;;5.81;100.00;98477.63;4981298;28;20296;-65
2021/11/30 10:27:58;;;;;;;1.00;0.97;;;4.90;99.90;;;5.79;100.00;98487.72;4990622;28;20224;-64
2021/11/30 10:30:32;;;;;;;1.00;0.80;;;4.90;99.90;;;5.74;100.00;98484.94;4992392;28;20304;-65
2021/11/30 10:33:05;;;;;;;0.80;0.80;;;4.90;99.90;;;5.76;100.00;98490.88;5010384;28;20190;-66
2021/11/30 10:35:34;;;;;;;1.10;1.00;;;4.90;99.90;;;5.88;100.00;98487.22;4993963;28;20306;-69
2021/11/30 10:38:06;;;;;;;1.33;1.00;;;5.00;99.90;;;5.97;100.00;98477.00;4993435;28;20242;-68
2021/11/30 10:40:39;;;;;;;0.80;0.80;;;5.10;99.90;;;5.91;100.00;98469.88;5009609;28;20518;-69